Time;durP1;ratioP1;P1;durP2;ratioP2;P2;SDS_P1;SDS_P2;PMS_P1;PMS_P2;Temp;Humidity;BMP_temperature;BMP_pressure;BME280_temperature;BME280_humidity;BME280_pressure;Samples;Min_cycle;Max_cycle;Signal;HPM_P1;HPM_P2
2023/06/20 00:01:19;;;;;;;;;;;;;;;26.87;84.40;97583.41;5063910;28;19975;-75
2023/06/20 00:03:46;;;;;;;;;;;;;;;27.10;82.15;97586.75;5081292;28;19967;-75
2023/06/20 00:06:12;;;;;;;;;;;;;;;27.26;80.79;97585.34;5082875;28;19933;-75
2023/06/20 00:08:38;;;;;;;;;;;;;;;27.30;80.11;97585.34;5084482;28;19960;-73
2023/06/20 00:11:06;;;;;;;;;;;;;;;27.31;80.36;97595.94;5083520;28;19925;-74
2023/06/20 00:13:34;;;;;;;;;;;;;;;27.34;79.86;97597.91;5081069;28;19936;-74
2023/06/20 00:16:01;;;;;;;;;;;;;;;27.37;79.93;97596.38;5081392;28;19935;-74
2023/06/20 00:18:27;;;;;;;;;;;;;;;27.32;79.37;97594.78;5084438;28;19936;-75
2023/06/20 00:20:54;;;;;;;;;;;;;;;27.14;80.93;97582.09;5087309;28;19959;-74
2023/06/20 00:23:20;;;;;;;;;;;;;;;27.26;80.36;97579.06;5081058;28;19996;-74
2023/06/20 00:25:47;;;;;;;;;;;;;;;27.28;79.28;97576.72;5080957;28;19935;-74
2023/06/20 00:28:17;;;;;;;;;;;;;;;27.28;78.32;97571.22;5082764;28;19925;-73
2023/06/20 00:30:43;;;;;;;;;;;;;;;26.52;82.33;97568.16;5084134;28;19924;-73
2023/06/20 00:33:09;;;;;;;;;;;;;;;25.91;88.57;97560.38;5082500;28;20381;-74
2023/06/20 00:35:36;;;;;;;;;;;;;;;25.86;89.27;97557.97;5080790;28;20549;-74
2023/06/20 00:38:02;;;;;;;;;;;;;;;26.41;86.28;97555.50;5081216;28;19992;-74
2023/06/20 00:40:28;;;;;;;;;;;;;;;26.68;83.80;97565.97;5083979;28;20425;-74
2023/06/20 00:42:55;;;;;;;;;;;;;;;26.80;82.36;97568.47;5084006;28;19997;-75
2023/06/20 00:45:28;;;;;;;;;;;;;;;26.94;81.58;97562.34;5080750;28;19948;-74
2023/06/20 00:47:55;;;;;;;;;;;;;;;26.57;83.96;97567.03;5080246;28;19924;-74
2023/06/20 00:50:26;;;;;;;;;;;;;;;26.56;84.09;97555.28;5086429;28;19971;-74
2023/06/20 00:52:55;;;;;;;;;;;;;;;26.40;85.05;97548.47;5083891;28;19935;-74
2023/06/20 00:55:21;;;;;;;;;;;;;;;25.53;93.32;97538.78;5080565;28;19924;-74
2023/06/20 00:57:48;;;;;;;;;;;;;;;24.60;100.00;97547.34;5080048;28;19931;-74
2023/06/20 01:00:15;;;;;;;;;;;;;;;24.99;99.72;97550.00;5082472;28;20023;-75
2023/06/20 01:02:46;;;;;;;;;;;;;;;25.72;93.38;97553.09;5083837;28;19987;-75
2023/06/20 01:05:13;;;;;;;;;;;;;;;26.23;89.17;97571.75;5081492;28;19931;-75
2023/06/20 01:07:43;;;;;;;;;;;;;;;26.44;87.25;97561.03;5080640;28;19960;-74
2023/06/20 01:10:15;;;;;;;;;;;;;;;26.26;88.27;97563.59;5082870;28;19924;-74
2023/06/20 01:12:45;;;;;;;;;;;;;;;26.05;90.25;97562.50;5083993;28;19925;-74
2023/06/20 01:15:16;;;;;;;;;;;;;;;26.30;88.13;97567.13;5081941;28;19925;-75
2023/06/20 01:17:46;;;;;;;;;;;;;;;26.52;86.42;97568.16;5079500;28;19963;-74
2023/06/20 01:20:16;;;;;;;;;;;;;;;26.59;85.65;97575.66;5084847;28;20071;-73
2023/06/20 01:22:48;;;;;;;;;;;;;;;26.65;85.15;97582.38;5083266;28;19924;-74
2023/06/20 01:25:20;;;;;;;;;;;;;;;26.70;84.74;97569.16;5081198;28;19924;-74
2023/06/20 01:27:51;;;;;;;;;;;;;;;26.68;84.67;97568.72;5079891;28;19924;-74
2023/06/20 01:30:20;;;;;;;;;;;;;;;26.71;84.26;97578.91;5082278;28;20000;-74
2023/06/20 01:32:48;;;;;;;;;;;;;;;26.79;83.57;97583.31;5083072;28;19940;-74
2023/06/20 01:35:16;;;;;;;;;;;;;;;26.74;83.43;97580.91;5081050;28;19970;-74
2023/06/20 01:37:46;;;;;;;;;;;;;;;26.00;86.57;97573.75;5061761;28;19925;-74
2023/06/20 01:40:16;;;;;;;;;;;;;;;26.00;89.03;97573.75;5081639;28;19956;-74
2023/06/20 01:42:43;;;;;;;;;;;;;;;26.23;87.57;97574.50;5082935;28;19924;-74
2023/06/20 01:45:13;;;;;;;;;;;;;;;26.33;86.21;97575.78;5081358;28;20045;-73
2023/06/20 01:47:41;;;;;;;;;;;;;;;26.50;85.13;97583.38;5061496;28;20011;-74
2023/06/20 01:50:09;;;;;;;;;;;;;;;26.57;84.23;97584.25;5083498;28;19947;-74
2023/06/20 01:52:35;;;;;;;;;;;;;;;26.53;83.88;97586.16;5082617;28;19959;-74
2023/06/20 01:55:05;;;;;;;;;;;;;;;26.56;83.74;97590.09;5082172;28;20333;-74
2023/06/20 01:57:32;;;;;;;;;;;;;;;26.57;83.38;97595.22;5079204;28;19925;-75
2023/06/20 01:59:59;;;;;;;;;;;;;;;26.49;83.48;97596.28;5079375;28;20340;-75
2023/06/20 02:02:26;;;;;;;;;;;;;;;26.04;86.42;97591.81;5082654;28;19987;-75
2023/06/20 02:04:56;;;;;;;;;;;;;;;25.81;88.21;97591.09;5064823;28;19948;-75
2023/06/20 02:07:23;;;;;;;;;;;;;;;26.16;86.80;97590.81;5061251;28;19988;-75
2023/06/20 02:09:50;;;;;;;;;;;;;;;26.29;85.56;97597.63;5079302;28;20015;-75
2023/06/20 02:12:18;;;;;;;;;;;;;;;26.19;85.79;97604.56;5081793;28;20000;-75
2023/06/20 02:14:44;;;;;;;;;;;;;;;25.95;87.31;97594.03;5082708;28;19932;-75
2023/06/20 02:17:14;;;;;;;;;;;;;;;25.92;88.29;97599.47;5081085;28;19931;-75
2023/06/20 02:19:41;;;;;;;;;;;;;;;25.66;90.00;97592.84;5079207;28;19924;-75
2023/06/20 02:22:08;;;;;;;;;;;;;;;25.46;91.78;97598.78;5064720;28;19992;-74
2023/06/20 02:24:37;;;;;;;;;;;;;;;25.58;91.88;97602.13;5064632;28;19925;-74
2023/06/20 02:27:04;;;;;;;;;;;;;;;25.97;88.75;97602.66;5081957;28;19991;-74
2023/06/20 02:29:37;;;;;;;;;;;;;;;26.15;86.63;97602.91;5085675;28;19924;-74
2023/06/20 02:32:05;;;;;;;;;;;;;;;26.27;86.26;97600.72;5086308;28;20008;-74
2023/06/20 02:34:34;;;;;;;;;;;;;;;26.38;85.39;97611.03;5088998;28;19948;-74
2023/06/20 02:37:01;;;;;;;;;;;;;;;26.42;85.04;97620.88;5088637;28;19925;-75
2023/06/20 02:39:27;;;;;;;;;;;;;;;26.40;85.02;97630.63;5067730;28;19925;-75
2023/06/20 02:41:54;;;;;;;;;;;;;;;26.37;85.38;97634.88;5085459;28;19935;-75
2023/06/20 02:44:20;;;;;;;;;;;;;;;26.29;85.98;97630.47;5088550;28;20018;-74
2023/06/20 02:46:56;;;;;;;;;;;;;;;25.49;93.79;97634.41;5087338;28;19993;-75
2023/06/20 02:49:29;;;;;;;;;;;;;;;25.09;98.53;97628.63;5085306;28;19929;-74
2023/06/20 02:52:02;;;;;;;;;;;;;;;25.20;97.09;97635.06;5088148;28;19967;-74
2023/06/20 02:54:32;;;;;;;;;;;;;;;25.57;93.95;97619.69;5085032;28;19967;-74
2023/06/20 02:57:01;;;;;;;;;;;;;;;25.81;92.21;97628.63;5085737;28;20591;-75
2023/06/20 02:59:29;;;;;;;;;;;;;;;25.82;92.22;97619.25;5085589;28;19972;-75
2023/06/20 03:01:58;;;;;;;;;;;;;;;25.32;98.13;97629.41;5085193;28;19925;-74
2023/06/20 03:04:27;;;;;;;;;;;;;;;24.91;100.00;97622.88;5085421;28;19921;-74
2023/06/20 03:06:54;;;;;;;;;;;;;;;25.49;96.59;97623.47;5085444;28;19960;-74
2023/06/20 03:09:20;;;;;;;;;;;;;;;25.47;96.58;97633.94;5088525;28;19964;-75
2023/06/20 03:11:47;;;;;;;;;;;;;;;25.73;94.44;97635.94;5089039;28;20038;-74
2023/06/20 03:14:13;;;;;;;;;;;;;;;25.92;93.35;97635.03;5086780;28;19992;-74
2023/06/20 03:16:41;;;;;;;;;;;;;;;26.04;92.01;97635.59;5085494;28;19928;-74
2023/06/20 03:19:09;;;;;;;;;;;;;;;26.11;90.63;97652.13;5086415;28;19971;-74
2023/06/20 03:21:36;;;;;;;;;;;;;;;26.16;90.93;97660.03;5091887;28;19968;-74
2023/06/20 03:24:02;;;;;;;;;;;;;;;26.19;90.76;97669.44;5085729;28;19925;-74
2023/06/20 03:26:28;;;;;;;;;;;;;;;26.17;90.71;97672.56;5070546;28;19943;-74
2023/06/20 03:28:55;;;;;;;;;;;;;;;26.16;90.83;97665.50;5089087;28;19924;-75
2023/06/20 03:31:21;;;;;;;;;;;;;;;26.10;90.33;97688.06;5085234;28;19948;-74
2023/06/20 03:33:47;;;;;;;;;;;;;;;26.10;91.04;97688.84;5085176;28;19975;-74
2023/06/20 03:36:15;;;;;;;;;;;;;;;26.09;91.37;97689.25;5069030;28;20015;-74
2023/06/20 03:38:42;;;;;;;;;;;;;;;26.11;91.33;97695.13;5087621;28;19924;-74
2023/06/20 03:41:08;;;;;;;;;;;;;;;26.11;91.32;97700.59;5083409;28;20015;-74
2023/06/20 03:43:34;;;;;;;;;;;;;;;26.14;90.63;97717.06;5063793;28;19924;-74
2023/06/20 03:46:01;;;;;;;;;;;;;;;26.14;90.72;97711.59;5081605;28;19948;-74
2023/06/20 03:48:27;;;;;;;;;;;;;;;26.16;90.51;97716.72;5084885;28;19984;-75
2023/06/20 03:50:54;;;;;;;;;;;;;;;25.98;90.40;97726.59;5087779;28;19925;-74
2023/06/20 03:53:21;;;;;;;;;;;;;;;25.91;91.98;97735.47;5081816;28;19975;-74
2023/06/20 03:55:48;;;;;;;;;;;;;;;26.00;91.76;97733.28;5063493;28;19992;-74
2023/06/20 03:58:14;;;;;;;;;;;;;;;25.92;91.48;97736.28;5065398;28;19947;-75
2023/06/20 04:00:41;;;;;;;;;;;;;;;25.39;96.34;97743.56;5084868;28;20262;-75
2023/06/20 04:03:07;;;;;;;;;;;;;;;24.92;99.59;97741.91;5065640;28;20031;-75
2023/06/20 04:05:33;;;;;;;;;;;;;;;25.12;99.10;97734.47;5081221;28;19984;-76
2023/06/20 04:08:01;;;;;;;;;;;;;;;25.13;98.33;97747.75;5082322;28;19929;-74
2023/06/20 04:10:28;;;;;;;;;;;;;;;24.69;100.00;97741.03;5085323;28;19971;-74
2023/06/20 04:12:55;;;;;;;;;;;;;;;24.47;100.00;97749.91;5084837;28;19925;-74
2023/06/20 04:15:21;;;;;;;;;;;;;;;24.61;100.00;97744.72;5081747;28;19952;-74
2023/06/20 04:17:48;;;;;;;;;;;;;;;24.69;100.00;97752.75;5081167;28;19951;-74
2023/06/20 04:20:14;;;;;;;;;;;;;;;24.85;100.00;97749.19;5086356;28;19924;-74
2023/06/20 04:22:42;;;;;;;;;;;;;;;24.57;100.00;97747.38;5084823;28;19924;-74
2023/06/20 04:25:08;;;;;;;;;;;;;;;24.49;100.00;97753.84;5065868;28;19924;-74
2023/06/20 04:27:36;;;;;;;;;;;;;;;24.36;100.00;97746.13;5081458;28;19925;-74
2023/06/20 04:30:03;;;;;;;;;;;;;;;24.80;100.00;97752.94;5081682;28;19925;-73
2023/06/20 04:32:30;;;;;;;;;;;;;;;25.07;100.00;97751.16;5085122;28;19934;-73
2023/06/20 04:34:56;;;;;;;;;;;;;;;25.19;99.13;97742.81;5084352;28;19940;-73
2023/06/20 04:37:22;;;;;;;;;;;;;;;24.84;100.00;97742.91;5063227;28;19936;-73
2023/06/20 04:39:49;;;;;;;;;;;;;;;24.98;100.00;97743.19;5081186;28;19984;-73
2023/06/20 04:42:15;;;;;;;;;;;;;;;25.27;97.70;97752.72;5083433;28;19988;-73
2023/06/20 04:44:44;;;;;;;;;;;;;;;25.49;96.65;97754.72;5084536;28;19995;-73
2023/06/20 04:47:12;;;;;;;;;;;;;;;25.67;94.88;97752.28;5082634;28;19932;-73
2023/06/20 04:49:40;;;;;;;;;;;;;;;25.78;93.39;97756.75;5080951;28;19925;-73
2023/06/20 04:52:06;;;;;;;;;;;;;;;25.87;92.32;97755.75;5082935;28;19985;-73
2023/06/20 04:54:33;;;;;;;;;;;;;;;25.92;92.18;97744.47;5082514;28;19984;-73
2023/06/20 04:56:59;;;;;;;;;;;;;;;25.96;92.34;97753.53;5084031;28;19912;-73
2023/06/20 04:59:26;;;;;;;;;;;;;;;25.99;91.40;97758.28;5080676;28;20016;-73
2023/06/20 05:01:55;;;;;;;;;;;;;;;25.83;91.28;97761.16;5062610;28;20000;-73
2023/06/20 05:04:22;;;;;;;;;;;;;;;25.64;93.10;97750.28;5065339;28;19950;-73
2023/06/20 05:06:48;;;;;;;;;;;;;;;25.72;92.66;97751.97;5083361;28;19991;-74
2023/06/20 05:09:14;;;;;;;;;;;;;;;25.80;92.09;97741.94;5081151;28;19960;-74
2023/06/20 05:11:41;;;;;;;;;;;;;;;25.60;92.28;97742.00;5080180;28;19935;-74
2023/06/20 05:14:07;;;;;;;;;;;;;;;25.53;93.07;97746.59;5080678;28;20023;-74
2023/06/20 05:16:33;;;;;;;;;;;;;;;25.32;94.69;97746.16;5064972;28;19996;-74
2023/06/20 05:19:01;;;;;;;;;;;;;;;25.08;96.61;97744.53;5082797;28;19988;-74
2023/06/20 05:21:27;;;;;;;;;;;;;;;25.09;96.70;97741.47;5082409;28;20595;-74
2023/06/20 05:23:54;;;;;;;;;;;;;;;25.10;97.00;97740.28;5079402;28;20193;-74
2023/06/20 05:26:20;;;;;;;;;;;;;;;25.36;94.95;97752.47;5082225;28;19984;-74
2023/06/20 05:28:47;;;;;;;;;;;;;;;25.63;92.74;97752.22;5083004;28;19989;-74
2023/06/20 05:31:13;;;;;;;;;;;;;;;25.78;91.04;97766.91;5080888;28;19943;-74
2023/06/20 05:33:39;;;;;;;;;;;;;;;25.75;90.33;97768.44;5061500;28;19925;-74
2023/06/20 05:36:07;;;;;;;;;;;;;;;25.91;88.90;97762.03;5080173;28;19932;-74
2023/06/20 05:38:35;;;;;;;;;;;;;;;25.94;90.18;97756.63;5082740;28;19925;-74
2023/06/20 05:41:01;;;;;;;;;;;;;;;25.83;90.39;97771.31;5082245;28;19975;-74
2023/06/20 05:43:29;;;;;;;;;;;;;;;25.78;90.26;97773.19;5079473;28;19925;-74
2023/06/20 05:45:55;;;;;;;;;;;;;;;25.97;90.62;97771.53;5079451;28;19992;-74
2023/06/20 05:48:23;;;;;;;;;;;;;;;25.99;89.95;97769.22;5082284;28;19951;-74
2023/06/20 05:50:51;;;;;;;;;;;;;;;26.10;89.47;97767.44;5068096;28;19954;-75
2023/06/20 05:53:20;;;;;;;;;;;;;;;25.43;98.15;97771.75;5080182;28;20273;-74
2023/06/20 05:55:46;;;;;;;;;;;;;;;24.50;100.00;97769.09;5079338;28;19931;-74
2023/06/20 05:58:13;;;;;;;;;;;;;;;24.39;100.00;97770.78;5081203;28;19943;-74
2023/06/20 06:00:39;;;;;;;;;;;;;;;24.34;100.00;97768.34;5064865;28;19991;-74
2023/06/20 06:03:06;;;;;;;;;;;;;;;24.33;100.00;97761.28;5081105;28;19925;-74
2023/06/20 06:05:32;;;;;;;;;;;;;;;23.89;100.00;97759.84;5078968;28;19969;-74
2023/06/20 06:07:58;;;;;;;;;;;;;;;23.96;100.00;97752.63;5078939;28;20007;-74
2023/06/20 06:10:26;;;;;;;;;;;;;;;24.01;100.00;97760.53;5070350;28;19988;-74
2023/06/20 06:12:52;;;;;;;;;;;;;;;24.05;100.00;97755.16;5070484;28;19975;-74
2023/06/20 06:15:19;;;;;;;;;;;;;;;24.19;100.00;97760.97;5052554;28;19932;-73
2023/06/20 06:17:45;;;;;;;;;;;;;;;24.46;100.00;97762.75;5069509;28;19963;-74
2023/06/20 06:20:14;;;;;;;;;;;;;;;24.57;100.00;97755.56;5075500;28;19971;-74
2023/06/20 06:22:40;;;;;;;;;;;;;;;24.55;100.00;97751.63;5082314;28;19924;-73
2023/06/20 06:25:08;;;;;;;;;;;;;;;24.63;100.00;97747.91;5081080;28;20345;-73
2023/06/20 06:27:35;;;;;;;;;;;;;;;24.91;100.00;97750.47;5078775;28;19932;-73
2023/06/20 06:30:03;;;;;;;;;;;;;;;24.77;100.00;97756.38;5079137;28;19947;-73
2023/06/20 06:32:30;;;;;;;;;;;;;;;24.78;100.00;97757.97;5082292;28;19925;-73
2023/06/20 06:34:59;;;;;;;;;;;;;;;25.07;100.00;97762.06;5081761;28;19924;-74
2023/06/20 06:37:27;;;;;;;;;;;;;;;25.08;100.00;97763.66;5078446;28;19925;-74
2023/06/20 06:39:54;;;;;;;;;;;;;;;24.97;100.00;97765.41;5078373;28;19924;-73
2023/06/20 06:42:21;;;;;;;;;;;;;;;25.19;100.00;97768.19;5081523;28;20346;-73
2023/06/20 06:44:48;;;;;;;;;;;;;;;25.13;100.00;97766.09;5081652;28;19958;-73
2023/06/20 06:47:15;;;;;;;;;;;;;;;25.10;100.00;97764.88;5079519;28;19925;-73
2023/06/20 06:49:41;;;;;;;;;;;;;;;25.10;100.00;97766.81;5078880;28;19928;-73
2023/06/20 06:52:08;;;;;;;;;;;;;;;25.41;100.00;97783.03;5081807;28;19968;-73
2023/06/20 06:54:34;;;;;;;;;;;;;;;25.25;100.00;97780.41;5081774;28;19996;-73
2023/06/20 06:57:01;;;;;;;;;;;;;;;25.20;100.00;97783.44;5081458;28;19932;-74
2023/06/20 06:59:27;;;;;;;;;;;;;;;25.00;100.00;97772.88;5078422;28;19944;-75
2023/06/20 07:01:55;;;;;;;;;;;;;;;25.43;100.00;97778.00;5078359;28;19932;-74
2023/06/20 07:04:21;;;;;;;;;;;;;;;25.81;98.35;97779.09;5082047;28;19929;-74
2023/06/20 07:06:48;;;;;;;;;;;;;;;25.54;100.00;97784.50;5082183;28;19925;-74
2023/06/20 07:09:14;;;;;;;;;;;;;;;25.52;100.00;97775.88;5079641;28;19988;-74
2023/06/20 07:11:40;;;;;;;;;;;;;;;25.86;96.81;97765.91;5078182;28;19932;-74
2023/06/20 07:14:07;;;;;;;;;;;;;;;26.00;96.71;97766.09;5061213;28;19935;-74
2023/06/20 07:16:33;;;;;;;;;;;;;;;26.10;94.63;97781.13;5085341;28;19932;-74
2023/06/20 07:19:01;;;;;;;;;;;;;;;26.10;93.54;97779.19;5085126;28;19930;-74
2023/06/20 07:21:27;;;;;;;;;;;;;;;26.24;93.77;97784.13;5084851;28;19925;-74
2023/06/20 07:23:54;;;;;;;;;;;;;;;26.18;95.23;97788.34;5081611;28;19964;-74
2023/06/20 07:26:20;;;;;;;;;;;;;;;26.23;93.72;97788.81;5084383;28;19996;-74
2023/06/20 07:28:47;;;;;;;;;;;;;;;26.36;91.65;97794.06;5084933;28;19924;-74
2023/06/20 07:31:16;;;;;;;;;;;;;;;26.41;93.72;97786.31;5065335;28;19970;-73
2023/06/20 07:33:42;;;;;;;;;;;;;;;26.29;93.96;97789.28;5081849;28;19999;-74
2023/06/20 07:36:10;;;;;;;;;;;;;;;26.31;93.20;97786.94;5065026;28;19996;-74
2023/06/20 07:38:37;;;;;;;;;;;;;;;26.15;94.68;97794.50;5084909;28;19955;-74
2023/06/20 07:41:03;;;;;;;;;;;;;;;26.22;94.25;97794.63;5084452;28;20555;-74
2023/06/20 07:43:29;;;;;;;;;;;;;;;26.36;94.73;97799.53;5081353;28;19935;-74
2023/06/20 07:45:56;;;;;;;;;;;;;;;25.97;100.00;97788.72;5063472;28;19924;-74
2023/06/20 07:48:24;;;;;;;;;;;;;;;26.03;99.50;97798.22;5084132;28;19963;-74
2023/06/20 07:50:50;;;;;;;;;;;;;;;26.29;96.97;97783.78;5087702;28;19924;-74
2023/06/20 07:53:18;;;;;;;;;;;;;;;26.44;97.33;97784.78;5082097;28;19954;-74
2023/06/20 07:55:45;;;;;;;;;;;;;;;26.42;98.74;97774.22;5081091;28;20390;-74
2023/06/20 07:58:11;;;;;;;;;;;;;;;26.48;96.35;97769.19;5082701;28;20103;-75
2023/06/20 08:00:38;;;;;;;;;;;;;;;26.51;95.07;97780.22;5084512;28;19924;-74
2023/06/20 08:03:04;;;;;;;;;;;;;;;26.54;93.97;97784.16;5083729;28;19986;-73
2023/06/20 08:05:31;;;;;;;;;;;;;;;26.53;93.92;97782.56;5080949;28;19992;-74
2023/06/20 08:07:57;;;;;;;;;;;;;;;26.48;93.39;97775.47;5062828;28;20011;-74
2023/06/20 08:10:25;;;;;;;;;;;;;;;26.54;91.33;97773.19;5084135;28;19935;-75
2023/06/20 08:12:51;;;;;;;;;;;;;;;26.60;92.14;97775.25;5084493;28;19924;-74
2023/06/20 08:15:18;;;;;;;;;;;;;;;26.65;91.66;97774.91;5081889;28;19967;-74
2023/06/20 08:17:44;;;;;;;;;;;;;;;26.74;91.40;97758.97;5062700;28;20028;-74
2023/06/20 08:20:11;;;;;;;;;;;;;;;26.89;90.20;97767.44;5085326;28;19935;-74
2023/06/20 08:22:37;;;;;;;;;;;;;;;26.89;90.03;97762.75;5084119;28;19951;-74
2023/06/20 08:25:04;;;;;;;;;;;;;;;26.82;89.55;97773.59;5083049;28;19964;-74
2023/06/20 08:27:32;;;;;;;;;;;;;;;26.79;90.04;97777.84;5080725;28;19932;-75
2023/06/20 08:29:58;;;;;;;;;;;;;;;26.77;89.73;97777.41;5080598;28;20056;-74
2023/06/20 08:32:24;;;;;;;;;;;;;;;26.62;91.82;97775.66;5070852;28;19956;-75
2023/06/20 08:34:51;;;;;;;;;;;;;;;26.43;92.23;97772.28;5080310;28;19924;-75
2023/06/20 08:37:17;;;;;;;;;;;;;;;26.72;90.44;97766.00;5082767;28;20011;-74
2023/06/20 08:39:44;;;;;;;;;;;;;;;26.58;90.75;97776.78;5066116;28;19931;-74
2023/06/20 08:42:11;;;;;;;;;;;;;;;26.89;88.59;97773.69;5064455;28;20305;-74
2023/06/20 08:44:38;;;;;;;;;;;;;;;26.99;89.27;97773.00;5080334;28;19967;-75
2023/06/20 08:47:05;;;;;;;;;;;;;;;26.86;89.75;97771.72;5080974;28;19988;-74
2023/06/20 08:49:31;;;;;;;;;;;;;;;27.05;88.75;97778.97;5083920;28;19935;-74
2023/06/20 08:51:58;;;;;;;;;;;;;;;26.91;89.04;97771.38;5084102;28;20014;-75
2023/06/20 08:54:26;;;;;;;;;;;;;;;27.08;88.76;97780.97;5071816;28;19947;-74
2023/06/20 08:56:52;;;;;;;;;;;;;;;27.12;88.65;97787.28;5053857;28;20603;-74
2023/06/20 08:59:20;;;;;;;;;;;;;;;27.23;88.48;97778.00;5071690;28;19925;-74
2023/06/20 09:01:48;;;;;;;;;;;;;;;27.19;86.85;97781.88;5071550;28;19952;-75
2023/06/20 09:04:14;;;;;;;;;;;;;;;27.43;86.89;97775.09;5061911;28;19984;-75
2023/06/20 09:06:41;;;;;;;;;;;;;;;27.43;85.77;97767.66;5071409;28;19979;-75
2023/06/20 09:09:14;;;;;;;;;;;;;;;27.50;86.80;97769.69;5060641;28;19960;-74
2023/06/20 09:11:41;;;;;;;;;;;;;;;27.65;85.84;97765.91;5083310;28;20362;-75
2023/06/20 09:14:07;;;;;;;;;;;;;;;27.93;84.23;97774.41;5082112;28;19964;-75
2023/06/20 09:16:33;;;;;;;;;;;;;;;27.87;84.20;97775.91;5079400;28;19952;-75
2023/06/20 09:19:01;;;;;;;;;;;;;;;27.64;85.70;97762.38;5079462;28;19932;-75
2023/06/20 09:21:28;;;;;;;;;;;;;;;27.63;86.22;97760.81;5087208;28;19931;-74
2023/06/20 09:24:04;;;;;;;;;;;;;;;27.60;85.64;97752.56;5079139;28;19952;-74
2023/06/20 09:26:31;;;;;;;;;;;;;;;27.60;85.93;97752.56;5079183;28;19924;-75
2023/06/20 09:29:05;;;;;;;;;;;;;;;27.80;86.21;97749.19;5079492;28;19932;-74
2023/06/20 09:31:39;;;;;;;;;;;;;;;27.67;85.50;97747.91;5071132;28;20007;-75
2023/06/20 09:34:09;;;;;;;;;;;;;;;27.70;86.34;97738.91;5071018;28;19955;-74
2023/06/20 09:36:35;;;;;;;;;;;;;;;27.75;85.40;97744.06;5070734;28;19924;-75
2023/06/20 09:39:03;;;;;;;;;;;;;;;27.88;84.83;97741.81;5070573;28;19991;-74
2023/06/20 09:41:29;;;;;;;;;;;;;;;27.74;85.74;97742.47;5070830;28;19939;-74
2023/06/20 09:43:55;;;;;;;;;;;;;;;27.57;87.93;97739.59;5070985;28;19924;-75
2023/06/20 09:46:22;;;;;;;;;;;;;;;27.43;90.07;97745.72;5071062;28;20028;-74
2023/06/20 09:48:48;;;;;;;;;;;;;;;27.42;90.54;97735.13;5071071;28;19975;-75
2023/06/20 09:51:16;;;;;;;;;;;;;;;27.31;90.94;97730.31;5082409;28;19924;-74
2023/06/20 09:53:45;;;;;;;;;;;;;;;27.23;91.38;97725.13;5079181;28;19952;-74
2023/06/20 09:56:12;;;;;;;;;;;;;;;27.37;90.99;97728.00;5062876;28;19945;-74
2023/06/20 09:58:41;;;;;;;;;;;;;;;27.69;88.79;97731.88;5083378;28;19925;-73
2023/06/20 10:01:11;;;;;;;;;;;;;;;27.88;87.79;97731.59;5065047;28;19964;-74
2023/06/20 10:03:39;;;;;;;;;;;;;;;28.12;83.48;97730.25;5080042;28;19925;-74
2023/06/20 10:06:05;;;;;;;;;;;;;;;28.01;84.77;97723.84;5080376;28;19932;-74
2023/06/20 10:08:33;;;;;;;;;;;;;;;28.10;82.18;97720.84;5082536;28;20003;-74
2023/06/20 10:11:00;;;;;;;;;;;;;;;28.28;84.13;97721.72;5082516;28;20011;-74
2023/06/20 10:13:26;;;;;;;;;;;;;;;28.14;85.64;97716.13;5061093;28;19924;-75
2023/06/20 10:15:53;;;;;;;;;;;;;;;28.00;87.44;97718.75;5061099;28;19980;-74
2023/06/20 10:18:20;;;;;;;;;;;;;;;28.30;85.49;97719.38;5081735;28;19928;-75
2023/06/20 10:20:46;;;;;;;;;;;;;;;28.50;83.00;97712.44;5085467;28;19988;-75
2023/06/20 10:23:13;;;;;;;;;;;;;;;28.60;80.93;97708.13;5080292;28;19925;-75
2023/06/20 10:25:51;;;;;;;;;;;;;;;28.60;81.42;97710.88;5078777;28;19952;-75
2023/06/20 10:28:19;;;;;;;;;;;;;;;28.79;78.91;97705.91;5081067;28;19980;-73
2023/06/20 10:30:57;;;;;;;;;;;;;;;28.96;78.90;97707.16;5063969;28;19983;-74
2023/06/20 10:33:24;;;;;;;;;;;;;;;28.98;79.41;97688.28;5078920;28;19932;-74
2023/06/20 10:35:51;;;;;;;;;;;;;;;28.69;80.72;97698.41;5078646;28;19925;-74
2023/06/20 10:38:18;;;;;;;;;;;;;;;28.71;81.52;97692.53;5081093;28;19931;-74
2023/06/20 10:40:44;;;;;;;;;;;;;;;28.74;80.38;97692.53;5082121;28;19928;-74
2023/06/20 10:43:18;;;;;;;;;;;;;;;28.82;81.05;97682.34;5080542;28;19924;-74
2023/06/20 10:46:02;;;;;;;;;;;;;;;29.03;78.86;97684.38;5078600;28;19975;-74
2023/06/20 10:48:29;;;;;;;;;;;;;;;28.96;78.13;97685.16;5071088;28;19924;-74
2023/06/20 10:50:59;;;;;;;;;;;;;;;28.84;78.88;97680.00;5080734;28;19979;-74
2023/06/20 10:53:26;;;;;;;;;;;;;;;28.76;79.82;97679.19;5074433;28;19952;-74
2023/06/20 10:55:52;;;;;;;;;;;;;;;28.77;79.50;97675.28;5074209;28;19935;-75
2023/06/20 10:58:20;;;;;;;;;;;;;;;28.65;80.27;97667.38;5074227;28;19980;-74
2023/06/20 11:00:47;;;;;;;;;;;;;;;28.74;78.25;97680.75;5064454;28;19952;-74
2023/06/20 11:03:13;;;;;;;;;;;;;;;28.89;77.50;97679.63;5066359;28;19947;-74
2023/06/20 11:05:40;;;;;;;;;;;;;;;28.84;76.54;97688.25;5086296;28;19924;-74
2023/06/20 11:08:08;;;;;;;;;;;;;;;28.81;78.50;97692.53;5085746;28;19925;-74
2023/06/20 11:10:35;;;;;;;;;;;;;;;28.83;79.55;97687.47;5082941;28;19975;-75
2023/06/20 11:13:03;;;;;;;;;;;;;;;29.00;79.26;97679.66;5065124;28;19932;-75
2023/06/20 11:15:32;;;;;;;;;;;;;;;29.00;78.59;97674.16;5086257;28;19984;-75
2023/06/20 11:18:00;;;;;;;;;;;;;;;29.03;78.78;97674.16;5086354;28;19931;-75
2023/06/20 11:20:27;;;;;;;;;;;;;;;29.14;76.83;97676.94;5086189;28;20290;-74
2023/06/20 11:22:54;;;;;;;;;;;;;;;29.10;76.64;97673.38;5085718;28;20028;-74
2023/06/20 11:25:25;;;;;;;;;;;;;;;29.40;77.86;97682.88;5082485;28;19925;-74
2023/06/20 11:27:51;;;;;;;;;;;;;;;29.51;76.76;97674.66;5082272;28;19956;-75
2023/06/20 11:30:24;;;;;;;;;;;;;;;29.40;76.45;97671.88;5084494;28;19979;-75
2023/06/20 11:33:01;;;;;;;;;;;;;;;29.44;76.27;97660.88;5085676;28;19924;-74
2023/06/20 11:35:41;;;;;;;;;;;;;;;29.55;77.91;97666.41;5073572;28;19925;-74
2023/06/20 11:38:07;;;;;;;;;;;;;;;29.50;76.42;97658.50;5073880;28;19925;-74
2023/06/20 11:40:34;;;;;;;;;;;;;;;29.44;78.38;97647.91;5073515;28;19991;-74
2023/06/20 11:43:00;;;;;;;;;;;;;;;29.67;76.89;97644.78;5073303;28;19931;-73
2023/06/20 11:45:27;;;;;;;;;;;;;;;29.69;76.29;97647.13;5073173;28;19960;-74
2023/06/20 11:48:07;;;;;;;;;;;;;;;29.52;75.85;97645.16;5063747;28;19932;-74
2023/06/20 11:50:34;;;;;;;;;;;;;;;29.52;73.97;97648.72;5086260;28;19951;-74
2023/06/20 11:53:02;;;;;;;;;;;;;;;29.45;73.76;97643.19;5085314;28;19924;-75
2023/06/20 11:55:47;;;;;;;;;;;;;;;29.47;73.34;97635.34;5081511;28;19925;-74
2023/06/20 11:58:14;;;;;;;;;;;;;;;29.36;76.75;97642.81;5083400;28;19971;-75
2023/06/20 12:00:40;;;;;;;;;;;;;;;29.61;74.43;97643.59;5084223;28;19924;-74
2023/06/20 12:03:10;;;;;;;;;;;;;;;29.80;73.33;97645.16;5083792;28;19938;-74
2023/06/20 12:05:38;;;;;;;;;;;;;;;29.72;71.57;97627.84;5081258;28;19929;-75
2023/06/20 12:08:04;;;;;;;;;;;;;;;29.71;72.11;97631.00;5081687;28;19933;-74
2023/06/20 12:10:31;;;;;;;;;;;;;;;29.45;73.47;97623.94;5084656;28;19925;-75
2023/06/20 12:13:03;;;;;;;;;;;;;;;29.74;74.54;97621.97;5084839;28;19925;-75
2023/06/20 12:15:29;;;;;;;;;;;;;;;29.91;74.35;97621.94;5081226;28;19925;-75
2023/06/20 12:17:56;;;;;;;;;;;;;;;30.01;73.22;97614.06;5081160;28;19925;-74
2023/06/20 12:20:24;;;;;;;;;;;;;;;30.03;74.24;97611.69;5087287;28;19995;-75
2023/06/20 12:22:50;;;;;;;;;;;;;;;29.86;73.71;97618.81;5084552;28;20462;-74
2023/06/20 12:25:16;;;;;;;;;;;;;;;29.90;73.82;97605.81;5082194;28;19924;-74
2023/06/20 12:27:43;;;;;;;;;;;;;;;30.12;72.81;97612.03;5080905;28;19924;-74
2023/06/20 12:30:10;;;;;;;;;;;;;;;30.09;72.11;97621.88;5081855;28;19967;-74
2023/06/20 12:32:37;;;;;;;;;;;;;;;30.19;69.52;97617.53;5083425;28;19924;-74
2023/06/20 12:35:03;;;;;;;;;;;;;;;30.20;70.26;97608.09;5083044;28;19928;-74
2023/06/20 12:37:31;;;;;;;;;;;;;;;30.04;71.27;97616.00;5080242;28;19931;-74
2023/06/20 12:39:57;;;;;;;;;;;;;;;30.28;70.73;97598.63;5080274;28;19988;-74
2023/06/20 12:42:24;;;;;;;;;;;;;;;30.09;70.75;97604.56;5083491;28;19992;-74
2023/06/20 12:44:51;;;;;;;;;;;;;;;30.18;70.90;97594.72;5083526;28;20299;-74
2023/06/20 12:47:17;;;;;;;;;;;;;;;29.98;71.72;97599.91;5081389;28;19967;-74